Time;durP1;ratioP1;P1;durP2;ratioP2;P2;SDS_P1;SDS_P2;PMS_P1;PMS_P2;Temp;Humidity;BMP_temperature;BMP_pressure;BME280_temperature;BME280_humidity;BME280_pressure;Samples;Min_cycle;Max_cycle;Signal;HPM_P1;HPM_P2
2021/05/12 00:00:24;;;;;;;2.55;1.12;;;;;;;16.68;42.65;100836.47;143739;629;47010;-73
2021/05/12 00:02:51;;;;;;;3.10;1.00;;;;;;;16.67;42.36;100834.75;143737;580;47018;-74
2021/05/12 00:05:21;;;;;;;4.72;1.20;;;;;;;16.69;42.45;100819.63;143740;604;46008;-74
2021/05/12 00:07:48;;;;;;;2.90;1.00;;;;;;;16.73;40.97;100822.97;143737;612;46018;-75
2021/05/12 00:10:18;;;;;;;3.20;1.10;;;;;;;16.70;40.78;100823.13;143739;589;46012;-74
2021/05/12 00:12:45;;;;;;;4.35;0.98;;;;;;;16.66;40.75;100818.94;143736;573;47020;-75
2021/05/12 00:15:16;;;;;;;4.37;1.00;;;;;;;16.63;40.80;100824.41;143739;620;46008;-75
2021/05/12 00:17:46;;;;;;;2.80;0.98;;;;;;;16.60;41.53;100829.87;143739;576;46008;-76
2021/05/12 00:20:19;;;;;;;2.87;1.05;;;;;;;16.59;41.47;100831.62;143740;601;46008;-77
2021/05/12 00:22:52;;;;;;;3.83;1.05;;;;;;;16.60;41.31;100829.87;143737;580;46016;-78
2021/05/12 00:25:20;;;;;;;4.95;0.95;;;;;;;16.64;41.49;100829.63;143737;619;46023;-78
2021/05/12 00:27:47;;;;;;;2.28;1.00;;;;;;;16.63;41.74;100825.25;143738;610;46008;-78
2021/05/12 00:30:18;;;;;;;3.08;1.05;;;;;;;16.61;41.59;100827.13;143738;565;47010;-74
2021/05/12 00:32:45;;;;;;;2.85;1.00;;;;;;;16.67;41.33;100812.69;143734;602;47018;-78
2021/05/12 00:35:14;;;;;;;1.98;1.00;;;;;;;16.63;41.70;100824.41;143738;605;46009;-78
2021/05/12 00:37:41;;;;;;;4.43;1.10;;;;;;;16.55;41.66;100817.69;143736;569;46018;-78
2021/05/12 00:40:11;;;;;;;3.10;1.02;;;;;;;16.53;42.06;100822.22;143740;580;46008;-78
2021/05/12 00:42:39;;;;;;;4.40;1.20;;;;;;;16.50;42.52;100824.19;143736;576;46017;-76
2021/05/12 00:45:11;;;;;;;3.17;1.00;;;;;;;16.52;42.45;100828.44;143740;579;46008;-76
2021/05/12 00:47:39;;;;;;;1.95;0.95;;;;;;;16.47;42.74;100819.91;143740;569;46008;-80
2021/05/12 00:50:08;;;;;;;3.85;1.17;;;;;;;16.46;42.78;100817.28;143740;606;47010;-81
2021/05/12 00:52:36;;;;;;;4.70;1.30;;;;;;;16.38;42.25;100810.59;143735;583;47018;-83
2021/05/12 00:55:03;;;;;;;2.15;1.00;;;;;;;16.30;42.57;100815.44;143740;573;46010;-82
2021/05/12 00:57:30;;;;;;;5.65;1.05;;;;;;;16.19;42.75;100801.88;143737;605;46010;-82
2021/05/12 00:59:57;;;;;;;1.58;1.00;;;;;;;16.16;42.22;100802.03;143740;585;46018;-76
2021/05/12 01:02:25;;;;;;;2.65;1.00;;;;;;;16.13;41.78;100805.69;143737;613;46031;-74
2021/05/12 01:04:52;;;;;;;3.42;0.85;;;;;;;16.05;42.25;100803.41;143739;590;46919;-81
2021/05/12 01:07:19;;;;;;;2.65;0.85;;;;;;;16.01;42.24;100793.91;143736;641;46008;-80
2021/05/12 01:09:46;;;;;;;4.65;0.90;;;;;;;15.99;42.30;100787.84;143739;675;46020;-82
2021/05/12 01:12:13;;;;;;;2.58;0.90;;;;;;;16.08;41.54;100784.72;143737;590;47011;-80
2021/05/12 01:14:40;;;;;;;2.58;0.80;;;;;;;16.04;41.75;100772.56;143737;603;46020;-80
2021/05/12 01:17:08;;;;;;;2.00;0.80;;;;;;;16.03;41.36;100765.56;143734;578;46008;-79
2021/05/12 01:19:35;;;;;;;2.83;0.90;;;;;;;16.02;41.46;100755.91;143735;586;46020;-80
2021/05/12 01:22:02;;;;;;;1.58;0.80;;;;;;;16.00;41.08;100751.63;143734;662;47008;-80
2021/05/12 01:24:29;;;;;;;2.97;1.02;;;;;;;15.98;41.54;100746.41;143735;585;46020;-71
2021/05/12 01:26:56;;;;;;;1.92;0.90;;;;;;;15.99;41.59;100748.13;143727;595;46019;-72
2021/05/12 01:29:24;;;;;;;2.75;0.90;;;;;;;16.03;42.01;100749.69;143732;658;46008;-79
2021/05/12 01:31:55;;;;;;;2.28;0.90;;;;;;;16.07;41.99;100747.72;143736;573;46020;-76
2021/05/12 01:34:23;;;;;;;2.10;0.80;;;;;;;16.11;41.58;100748.44;143735;562;46919;-76
2021/05/12 01:36:51;;;;;;;2.22;0.88;;;;;;;16.11;41.65;100736.03;143735;614;46016;-76
2021/05/12 01:39:18;;;;;;;4.00;1.02;;;;;;;16.16;41.80;100731.38;143736;599;46020;-76
2021/05/12 01:41:46;;;;;;;2.75;0.98;;;;;;;16.21;41.39;100725.81;143738;570;45018;-76
2021/05/12 01:44:15;;;;;;;2.37;1.00;;;;;;;16.14;41.79;100725.28;143738;572;46008;-75
2021/05/12 01:46:46;;;;;;;3.37;1.00;;;;;;;16.17;41.96;100732.19;143739;627;46016;-76
2021/05/12 01:49:13;;;;;;;4.05;1.10;;;;;;;16.26;41.45;100726.44;143736;594;46009;-76
2021/05/12 01:51:41;;;;;;;3.30;1.00;;;;;;;16.24;41.54;100717.72;143728;673;47009;-78
2021/05/12 01:54:10;;;;;;;4.62;1.27;;;;;;;16.20;41.81;100718.81;143738;588;46008;-75
2021/05/12 01:56:39;;;;;;;4.25;1.10;;;;;;;16.12;41.88;100713.91;143735;590;46019;-75
2021/05/12 01:59:07;;;;;;;2.60;0.98;;;;;;;16.07;41.89;100711.50;143736;584;46020;-72
2021/05/12 02:01:35;;;;;;;2.97;0.90;;;;;;;16.03;41.99;100709.94;143736;569;46020;-74
2021/05/12 02:04:07;;;;;;;2.12;0.90;;;;;;;16.02;42.18;100713.53;143737;632;46010;-74
2021/05/12 02:06:36;;;;;;;3.15;1.10;;;;;;;15.98;42.25;100714.63;143738;564;46010;-75
2021/05/12 02:09:08;;;;;;;3.90;1.20;;;;;;;15.98;42.56;100716.38;143736;566;47010;-81
2021/05/12 02:11:38;;;;;;;5.68;1.30;;;;;;;15.98;42.68;100711.09;143737;633;46010;-79
2021/05/12 02:14:07;;;;;;;3.10;1.10;;;;;;;16.02;42.78;100717.94;143737;572;46008;-79
2021/05/12 02:16:34;;;;;;;2.40;1.00;;;;;;;16.02;42.60;100724.13;143733;636;46010;-74
2021/05/12 02:19:01;;;;;;;4.22;1.10;;;;;;;16.05;43.22;100739.84;143731;595;47015;-80
2021/05/12 02:21:28;;;;;;;3.83;1.12;;;;;;;16.05;42.75;100745.16;143737;569;46016;-80
2021/05/12 02:23:56;;;;;;;3.25;1.00;;;;;;;15.99;43.20;100748.13;143739;575;46008;-76
2021/05/12 02:26:23;;;;;;;4.95;1.42;;;;;;;15.94;43.30;100744.84;143738;626;46008;-77
2021/05/12 02:28:50;;;;;;;4.03;1.10;;;;;;;15.92;43.34;100748.50;143738;579;47010;-76
2021/05/12 02:31:17;;;;;;;3.45;1.05;;;;;;;15.86;42.94;100739.91;143733;601;47020;-75
2021/05/12 02:33:44;;;;;;;4.10;1.08;;;;;;;15.76;43.30;100716.59;143735;570;46020;-75
2021/05/12 02:36:11;;;;;;;2.65;1.00;;;;;;;15.62;43.70;100707.53;143735;673;47006;-76
2021/05/12 02:38:39;;;;;;;3.17;1.30;;;;;;;15.53;44.41;100710.66;143736;659;46022;-75
2021/05/12 02:41:07;;;;;;;5.37;1.10;;;;;;;15.51;44.39;100720.44;143731;571;46030;-75
2021/05/12 02:43:34;;;;;;;4.65;1.10;;;;;;;15.53;44.20;100713.28;143737;570;46010;-75
2021/05/12 02:46:01;;;;;;;2.33;1.00;;;;;;;15.57;44.31;100714.84;143735;668;46906;-75
2021/05/12 02:48:28;;;;;;;20.85;1.92;;;;;;;15.56;44.64;100710.50;143739;565;46009;-74
2021/05/12 02:50:55;;;;;;;5.30;1.10;;;;;;;15.64;44.65;100708.31;143735;637;46019;-73
2021/05/12 02:53:23;;;;;;;2.45;1.00;;;;;;;15.63;44.94;100713.69;143738;669;46008;-73
2021/05/12 02:55:50;;;;;;;3.75;1.10;;;;;;;15.56;44.85;100708.69;143737;650;46017;-74
2021/05/12 02:58:18;;;;;;;2.80;1.08;;;;;;;15.57;44.96;100713.06;143738;637;46010;-74
2021/05/12 03:00:45;;;;;;;8.65;1.55;;;;;;;15.54;45.00;100704.41;143736;698;45906;-76
2021/05/12 03:03:12;;;;;;;6.07;1.20;;;;;;;15.51;44.67;100701.91;143732;645;46020;-78
2021/05/12 03:05:40;;;;;;;3.37;1.05;;;;;;;15.46;44.69;100703.91;143728;698;46019;-78
2021/05/12 03:08:08;;;;;;;4.05;1.05;;;;;;;15.38;45.69;100707.78;143735;618;47006;-79
2021/05/12 03:10:36;;;;;;;3.80;1.20;;;;;;;15.48;44.77;100707.38;143734;615;46018;-78
2021/05/12 03:13:06;;;;;;;6.28;1.62;;;;;;;15.54;44.87;100709.69;143738;569;46010;-76
2021/05/12 03:15:34;;;;;;;4.75;1.90;;;;;;;15.55;44.95;100712.28;143737;594;46016;-78
2021/05/12 03:18:03;;;;;;;5.70;1.40;;;;;;;15.47;45.14;100714.41;143739;609;46008;-78
2021/05/12 03:20:31;;;;;;;5.78;1.50;;;;;;;15.44;45.65;100705.78;143737;569;47019;-77
2021/05/12 03:22:59;;;;;;;6.10;1.48;;;;;;;15.46;45.67;100709.22;143737;589;46020;-77
2021/05/12 03:25:27;;;;;;;5.43;1.40;;;;;;;15.31;45.85;100706.38;143738;601;45020;-77
2021/05/12 03:27:55;;;;;;;6.55;1.60;;;;;;;15.30;46.17;100715.25;143739;594;46023;-77
2021/05/12 03:30:30;;;;;;;7.18;1.70;;;;;;;15.23;46.05;100724.41;143731;597;46016;-76
2021/05/12 03:32:58;;;;;;;5.50;1.83;;;;;;;15.20;46.46;100722.75;143738;569;47008;-76
2021/05/12 03:35:26;;;;;;;8.38;1.73;;;;;;;15.23;46.04;100719.13;143735;570;46019;-76
2021/05/12 03:37:59;;;;;;;7.10;1.37;;;;;;;15.28;45.93;100714.47;143743;636;46008;-77
2021/05/12 03:40:27;;;;;;;7.22;1.50;;;;;;;15.27;46.43;100699.53;143738;687;46010;-77
2021/05/12 03:42:56;;;;;;;5.70;1.40;;;;;;;15.31;46.21;100697.56;143735;652;46021;-79
2021/05/12 03:45:24;;;;;;;5.32;1.37;;;;;;;15.37;46.09;100698.13;143737;612;46018;-80
2021/05/12 03:47:52;;;;;;;5.05;1.45;;;;;;;15.42;46.08;100687.34;143739;680;47006;-78
2021/05/12 03:50:22;;;;;;;6.55;1.50;;;;;;;15.48;45.84;100672.97;143738;583;46019;-79
2021/05/12 03:52:49;;;;;;;7.50;1.60;;;;;;;15.45;45.86;100662.53;143741;635;46008;-79
2021/05/12 03:55:17;;;;;;;4.00;1.27;;;;;;;15.38;45.76;100669.91;143730;667;46018;-78
2021/05/12 03:57:46;;;;;;;5.10;1.37;;;;;;;15.45;45.57;100686.34;143737;673;47006;-78
2021/05/12 04:00:15;;;;;;;4.87;1.50;;;;;;;15.42;46.15;100684.72;143738;577;46010;-78
2021/05/12 04:02:43;;;;;;;6.03;1.10;;;;;;;15.58;45.98;100668.91;143739;574;47008;-80
2021/05/12 04:05:12;;;;;;;6.97;1.67;;;;;;;15.63;45.88;100674.84;143733;592;47008;-80
2021/05/12 04:07:39;;;;;;;11.98;1.70;;;;;;;15.65;46.16;100674.75;143737;681;46020;-80
2021/05/12 04:10:08;;;;;;;8.68;1.62;;;;;;;15.69;45.96;100673.69;143736;603;46010;-79
2021/05/12 04:12:36;;;;;;;5.45;1.70;;;;;;;15.73;45.92;100670.81;143739;660;46008;-80
2021/05/12 04:15:05;;;;;;;6.28;1.50;;;;;;;15.74;46.55;100677.81;143738;596;45906;-80
2021/05/12 04:17:33;;;;;;;9.63;1.77;;;;;;;15.82;46.27;100679.25;143737;585;46020;-79
2021/05/12 04:20:00;;;;;;;4.72;1.50;;;;;;;15.89;46.31;100685.94;143729;652;47019;-74
2021/05/12 04:22:27;;;;;;;7.12;1.50;;;;;;;15.98;46.24;100669.59;143737;585;46008;-75
2021/05/12 04:24:54;;;;;;;4.80;1.40;;;;;;;16.07;46.22;100655.00;143737;676;46018;-76
2021/05/12 04:27:27;;;;;;;6.85;1.40;;;;;;;16.16;46.67;100654.53;143738;616;46008;-76
2021/05/12 04:29:54;;;;;;;6.95;1.83;;;;;;;16.25;46.67;100653.19;143737;564;46018;-79
2021/05/12 04:32:21;;;;;;;7.72;1.55;;;;;;;16.32;46.83;100657.25;143737;588;46020;-79
2021/05/12 04:34:48;;;;;;;6.22;1.48;;;;;;;16.45;47.07;100651.31;143738;583;46010;-78
2021/05/12 04:37:15;;;;;;;4.03;1.73;;;;;;;16.62;47.01;100659.19;143737;601;46565;-78
2021/05/12 04:39:43;;;;;;;4.97;1.85;;;;;;;16.67;49.21;100672.19;143733;573;47010;-77
2021/05/12 04:42:10;;;;;;;10.05;1.98;;;;;;;16.73;49.78;100677.16;143738;649;46021;-76
2021/05/12 04:44:37;;;;;;;8.30;2.47;;;;;;;16.87;48.28;100677.25;143729;635;46906;-76
2021/05/12 04:47:04;;;;;;;7.65;2.12;;;;;;;16.98;47.33;100681.16;143738;569;47006;-75
2021/05/12 04:49:31;;;;;;;8.75;1.95;;;;;;;17.18;47.07;100680.91;143737;587;46907;-76
2021/05/12 04:51:58;;;;;;;10.68;2.20;;;;;;;17.36;47.03;100686.97;143739;644;47008;-76
2021/05/12 04:54:26;;;;;;;8.00;2.60;;;;;;;17.54;47.11;100692.19;143736;631;46008;-76
2021/05/12 04:56:53;;;;;;;14.45;2.70;;;;;;;17.64;54.09;100684.53;143736;580;46021;-80
2021/05/12 04:59:20;;;;;;;21.95;3.92;;;;;;;17.93;47.93;100685.50;143737;602;46010;-74
2021/05/12 05:01:47;;;;;;;11.10;2.72;;;;;;;18.15;47.22;100690.41;143736;566;46020;-73
2021/05/12 05:04:17;;;;;;;10.50;2.22;;;;;;;18.27;47.12;100678.16;143733;589;46016;-73
2021/05/12 05:06:44;;;;;;;11.02;2.45;;;;;;;18.43;47.04;100673.59;143738;575;46010;-74
2021/05/12 05:09:11;;;;;;;10.00;2.25;;;;;;;18.59;47.01;100672.69;143733;576;46010;-74
2021/05/12 05:11:39;;;;;;;7.80;2.70;;;;;;;18.77;46.77;100676.84;143739;642;47009;-73
2021/05/12 05:14:07;;;;;;;7.37;1.90;;;;;;;18.89;46.91;100671.72;143736;659;46010;-75
2021/05/12 05:16:34;;;;;;;5.05;2.00;;;;;;;19.05;46.66;100669.78;143739;599;46008;-76
2021/05/12 05:19:01;;;;;;;8.75;2.10;;;;;;;19.13;46.34;100669.28;143737;746;46017;-74
2021/05/12 05:21:28;;;;;;;9.40;2.10;;;;;;;19.14;46.76;100662.19;143737;596;47008;-74
2021/05/12 05:23:56;;;;;;;12.65;2.30;;;;;;;19.23;46.24;100661.56;143735;632;46008;-72
2021/05/12 05:26:23;;;;;;;6.90;2.17;;;;;;;19.23;46.88;100662.44;143740;706;47006;-73
2021/05/12 05:28:50;;;;;;;9.30;2.20;;;;;;;19.18;46.83;100635.25;143735;605;46018;-78
2021/05/12 05:31:17;;;;;;;6.87;2.60;;;;;;;19.42;47.73;100661.19;143738;576;46008;-75
2021/05/12 05:33:45;;;;;;;9.13;2.87;;;;;;;19.41;48.10;100656.81;143729;603;46907;-78
2021/05/12 05:36:12;;;;;;;8.38;2.30;;;;;;;19.34;48.49;100659.06;143738;584;47006;-76
2021/05/12 05:38:39;;;;;;;5.90;2.20;;;;;;;19.39;48.82;100654.28;143739;593;46020;-76
2021/05/12 05:41:06;;;;;;;7.65;2.28;;;;;;;19.29;48.16;100618.59;143739;615;46008;-75
2021/05/12 05:43:33;;;;;;;10.93;2.37;;;;;;;19.59;48.35;100657.44;143741;569;45018;-75
2021/05/12 05:46:01;;;;;;;5.32;2.10;;;;;;;19.72;48.23;100652.12;143738;572;46008;-75
2021/05/12 05:48:29;;;;;;;5.72;2.20;;;;;;;19.72;49.08;100655.62;143736;600;47019;-76
2021/05/12 05:50:57;;;;;;;13.27;2.45;;;;;;;19.74;48.60;100651.06;143737;615;46010;-75
2021/05/12 05:53:24;;;;;;;7.72;2.20;;;;;;;19.78;47.95;100647.25;143735;576;46018;-75
2021/05/12 05:55:51;;;;;;;7.95;2.30;;;;;;;19.70;48.27;100649.56;143738;583;46021;-76
2021/05/12 05:58:19;;;;;;;7.47;2.50;;;;;;;19.66;48.28;100653.41;143727;595;47010;-76
2021/05/12 06:00:47;;;;;;;4.57;1.90;;;;;;;19.57;48.89;100648.69;143739;580;46008;-76
2021/05/12 06:03:14;;;;;;;7.90;2.33;;;;;;;19.70;48.55;100646.06;143735;579;46019;-75
2021/05/12 06:05:47;;;;;;;6.82;2.15;;;;;;;19.70;48.36;100644.25;143739;610;46022;-75
2021/05/12 06:08:14;;;;;;;7.43;2.50;;;;;;;19.93;48.46;100650.72;143737;566;46016;-75
2021/05/12 06:10:41;;;;;;;8.25;2.20;;;;;;;20.01;48.42;100647.53;143737;577;46021;-75
2021/05/12 06:13:08;;;;;;;7.00;2.05;;;;;;;20.22;47.68;100645.19;143737;601;47010;-76
2021/05/12 06:15:37;;;;;;;4.75;2.00;;;;;;;20.32;47.58;100642.72;143736;606;46027;-76
2021/05/12 06:18:04;;;;;;;6.90;2.00;;;;;;;20.52;47.13;100637.81;143737;592;47018;-75
2021/05/12 06:20:31;;;;;;;7.85;2.20;;;;;;;20.66;46.92;100632.31;143739;569;46008;-76
2021/05/12 06:23:05;;;;;;;6.90;2.10;;;;;;;20.82;46.57;100639.25;143733;581;47006;-75
2021/05/12 06:25:33;;;;;;;4.95;1.92;;;;;;;21.04;45.44;100631.41;143741;583;47006;-75
2021/05/12 06:28:00;;;;;;;6.43;1.85;;;;;;;21.12;45.02;100633.50;143735;606;49020;-75
2021/05/12 06:30:27;;;;;;;3.62;1.83;;;;;;;21.01;45.83;100636.97;143738;623;46008;-75
2021/05/12 06:32:54;;;;;;;7.78;2.17;;;;;;;20.93;46.52;100629.50;143735;610;46019;-74
2021/05/12 06:35:22;;;;;;;9.60;2.17;;;;;;;20.57;46.66;100572.50;143736;657;47019;-73
2021/05/12 06:37:49;;;;;;;7.50;2.62;;;;;;;20.48;47.55;100594.50;143735;667;46016;-74
2021/05/12 06:40:16;;;;;;;4.57;2.10;;;;;;;20.69;47.62;100618.78;143737;642;47008;-75
2021/05/12 06:42:44;;;;;;;6.78;2.20;;;;;;;20.74;47.14;100619.31;143736;580;46018;-73
2021/05/12 06:45:13;;;;;;;6.90;2.12;;;;;;;20.74;47.74;100618.47;143739;571;46008;-74
2021/05/12 06:47:41;;;;;;;4.47;1.85;;;;;;;20.65;47.40;100587.94;143733;584;47008;-74
2021/05/12 06:50:09;;;;;;;3.80;2.00;;;;;;;20.92;47.00;100602.94;143738;594;47008;-74
2021/05/12 06:52:36;;;;;;;5.60;1.90;;;;;;;21.07;46.52;100603.63;143735;607;46008;-75
2021/05/12 06:55:04;;;;;;;6.37;2.28;;;;;;;21.04;45.91;100601.19;143740;674;47008;-74
2021/05/12 06:57:31;;;;;;;6.85;2.15;;;;;;;21.11;46.21;100603.28;143737;592;47018;-74
2021/05/12 06:59:58;;;;;;;7.55;2.28;;;;;;;21.16;45.96;100605.63;143738;617;46022;-74
2021/05/12 07:02:26;;;;;;;5.22;1.90;;;;;;;21.29;45.90;100597.53;143737;606;46011;-73
2021/05/12 07:04:53;;;;;;;6.50;2.03;;;;;;;21.09;45.22;100597.22;143739;575;46022;-73
2021/05/12 07:07:20;;;;;;;4.87;2.10;;;;;;;21.11;46.10;100597.94;143737;672;47010;-74
2021/05/12 07:09:47;;;;;;;4.05;1.85;;;;;;;21.35;45.06;100590.88;143740;573;46008;-74
2021/05/12 07:12:14;;;;;;;5.22;2.00;;;;;;;21.21;45.65;100584.75;143730;757;46018;-74
2021/05/12 07:14:41;;;;;;;5.47;2.17;;;;;;;21.06;46.07;100585.91;143739;661;47006;-73
2021/05/12 07:17:08;;;;;;;6.87;2.10;;;;;;;21.06;45.31;100588.56;143734;581;48020;-73
2021/05/12 07:19:36;;;;;;;7.60;2.40;;;;;;;21.20;45.23;100582.19;143738;633;47010;-74
2021/05/12 07:22:03;;;;;;;6.18;2.00;;;;;;;21.01;44.51;100588.06;143738;579;46018;-73
2021/05/12 07:24:30;;;;;;;4.15;1.80;;;;;;;21.11;44.05;100592.59;143739;587;46022;-75
2021/05/12 07:26:57;;;;;;;5.30;1.80;;;;;;;21.12;41.99;100578.28;143736;590;46030;-74
2021/05/12 07:29:25;;;;;;;7.32;2.00;;;;;;;21.11;43.63;100584.59;143736;576;46020;-76
2021/05/12 07:31:52;;;;;;;5.20;1.75;;;;;;;21.19;41.43;100580.53;143737;712;46009;-74
2021/05/12 07:34:19;;;;;;;4.40;1.60;;;;;;;21.46;42.31;100578.44;143739;563;47010;-74
2021/05/12 07:36:46;;;;;;;5.22;1.50;;;;;;;21.30;39.58;100577.88;143732;584;47929;-74
2021/05/12 07:39:14;;;;;;;3.03;1.50;;;;;;;21.45;40.72;100574.03;143738;739;46020;-74
2021/05/12 07:41:42;;;;;;;5.40;1.67;;;;;;;21.44;40.33;100567.00;143733;606;46018;-75
2021/05/12 07:44:09;;;;;;;6.68;1.80;;;;;;;21.48;40.74;100571.12;143739;563;47006;-74
2021/05/12 07:46:36;;;;;;;4.97;1.70;;;;;;;21.55;40.73;100568.03;143737;573;46020;-74
2021/05/12 07:49:03;;;;;;;5.72;1.52;;;;;;;21.50;39.38;100562.16;143737;591;47008;-73
2021/05/12 07:51:30;;;;;;;5.05;1.45;;;;;;;21.38;38.37;100563.94;143734;658;46027;-73
2021/05/12 07:53:57;;;;;;;4.05;1.58;;;;;;;21.66;40.10;100562.72;143737;566;48006;-73
2021/05/12 07:56:25;;;;;;;6.12;1.45;;;;;;;21.83;39.37;100553.41;143734;596;46016;-73
2021/05/12 07:58:52;;;;;;;4.53;1.52;;;;;;;21.90;38.72;100551.09;143737;712;46008;-75
2021/05/12 08:01:27;;;;;;;4.93;1.35;;;;;;;22.12;37.41;100545.75;143730;645;46016;-73
2021/05/12 08:03:54;;;;;;;8.45;1.65;;;;;;;21.94;37.15;100550.72;143735;591;47576;-73
2021/05/12 08:06:21;;;;;;;6.68;1.70;;;;;;;22.04;36.70;100550.84;143736;570;46010;-74
2021/05/12 08:08:48;;;;;;;9.13;1.77;;;;;;;22.11;38.04;100551.22;143732;610;46919;-74
2021/05/12 08:11:15;;;;;;;5.20;1.40;;;;;;;22.28;37.44;100544.50;143734;608;46008;-74
2021/05/12 08:13:42;;;;;;;8.05;1.50;;;;;;;22.01;36.61;100540.41;143734;578;47006;-74
2021/05/12 08:16:10;;;;;;;4.80;1.50;;;;;;;22.27;35.73;100529.47;143737;588;46018;-75
2021/05/12 08:18:37;;;;;;;2.95;1.52;;;;;;;22.17;35.24;100533.84;143736;569;46008;-74
2021/05/12 08:21:05;;;;;;;3.22;1.35;;;;;;;22.17;34.10;100533.84;143737;609;46010;-75
2021/05/12 08:23:33;;;;;;;4.37;1.40;;;;;;;22.13;34.20;100539.44;143735;577;46021;-74
2021/05/12 08:26:00;;;;;;;3.28;1.45;;;;;;;22.25;35.47;100542.97;143728;677;46019;-74
2021/05/12 08:28:27;;;;;;;7.03;1.40;;;;;;;22.26;36.06;100535.78;143736;585;46024;-74
2021/05/12 08:30:56;;;;;;;3.83;1.30;;;;;;;22.39;35.17;100538.34;143736;599;46008;-74
2021/05/12 08:33:24;;;;;;;4.37;1.37;;;;;;;22.45;36.03;100543.22;143735;565;46023;-75
2021/05/12 08:35:52;;;;;;;4.43;1.33;;;;;;;22.35;36.44;100529.75;143735;585;46906;-75
2021/05/12 08:38:25;;;;;;;6.12;1.50;;;;;;;22.67;37.05;100534.28;143738;601;46008;-74
2021/05/12 08:40:56;;;;;;;4.85;1.60;;;;;;;22.60;36.24;100544.63;143734;570;46018;-73
2021/05/12 08:43:27;;;;;;;5.35;1.40;;;;;;;22.49;35.48;100536.63;143736;572;47006;-74
2021/05/12 08:45:55;;;;;;;4.00;1.30;;;;;;;22.48;35.88;100527.78;143737;596;46011;-75
2021/05/12 08:48:24;;;;;;;4.93;1.40;;;;;;;22.54;36.34;100522.88;143737;623;46008;-74
2021/05/12 08:50:53;;;;;;;4.45;1.50;;;;;;;22.56;36.85;100534.31;143730;612;47008;-74
2021/05/12 08:53:20;;;;;;;5.57;1.50;;;;;;;22.61;36.51;100532.13;143738;593;47006;-74
2021/05/12 08:55:47;;;;;;;4.15;1.48;;;;;;;22.60;38.09;100530.41;143734;641;46010;-74
2021/05/12 08:58:14;;;;;;;3.87;1.60;;;;;;;22.76;37.66;100530.84;143734;588;47008;-73
2021/05/12 09:00:42;;;;;;;5.90;1.50;;;;;;;22.66;36.77;100535.25;143735;573;46010;-74
2021/05/12 09:03:12;;;;;;;8.43;2.37;;;;;;;22.77;37.92;100523.66;143736;589;47008;-73
2021/05/12 09:05:39;;;;;;;5.55;1.73;;;;;;;22.86;38.16;100516.72;143733;648;47018;-75
2021/05/12 09:08:06;;;;;;;6.97;1.37;;;;;;;22.75;36.96;100518.44;143734;580;46919;-74
2021/05/12 09:10:33;;;;;;;3.80;1.20;;;;;;;23.26;36.48;100516.06;143734;617;46008;-75
2021/05/12 09:13:01;;;;;;;3.97;1.37;;;;;;;23.50;36.03;100513.12;143737;602;46018;-74
2021/05/12 09:15:30;;;;;;;3.55;1.35;;;;;;;23.55;34.94;100507.38;143729;641;46016;-74
2021/05/12 09:18:02;;;;;;;5.03;1.50;;;;;;;23.76;33.71;100507.34;143736;603;46008;-75
2021/05/12 09:20:39;;;;;;;2.35;1.15;;;;;;;23.59;34.27;100512.34;143735;576;46906;-75
2021/05/12 09:23:16;;;;;;;6.78;1.80;;;;;;;23.64;33.31;100503.91;143738;576;46009;-75
2021/05/12 09:25:57;;;;;;;1.95;1.08;;;;;;;24.09;33.11;100497.38;143734;590;46019;-75
2021/05/12 09:28:29;;;;;;;5.90;1.40;;;;;;;23.78;34.78;100498.22;143737;587;46008;-73
2021/05/12 09:31:12;;;;;;;2.00;1.05;;;;;;;23.62;34.53;100490.63;143732;571;46018;-73
2021/05/12 09:33:43;;;;;;;5.60;1.62;;;;;;;23.66;34.97;100491.19;143737;563;46020;-74
2021/05/12 09:36:28;;;;;;;4.20;1.50;;;;;;;23.55;35.82;100483.25;143734;569;47010;-75
2021/05/12 09:38:56;;;;;;;3.72;1.30;;;;;;;23.44;37.04;100493.09;143733;630;47008;-74
2021/05/12 09:41:36;;;;;;;4.87;1.33;;;;;;;23.27;37.30;100501.72;143729;635;47008;-72
2021/05/12 09:44:06;;;;;;;4.68;1.35;;;;;;;23.28;37.82;100496.22;143738;631;47006;-72
2021/05/12 09:46:40;;;;;;;5.37;1.20;;;;;;;23.33;38.20;100503.84;143735;637;46012;-73
2021/05/12 09:49:17;;;;;;;;;;;;;;;23.60;35.88;100494.44;143739;980;46020;-74
2021/05/12 09:51:47;;;;;;;6.82;1.42;;;;;;;23.48;37.22;100494.53;143741;614;47008;-75
2021/05/12 09:54:22;;;;;;;3.42;1.27;;;;;;;23.21;38.98;100487.00;143735;574;46021;-73
2021/05/12 09:56:57;;;;;;;5.90;1.27;;;;;;;23.20;40.48;100487.16;143735;587;46038;-75
2021/05/12 09:59:34;;;;;;;4.45;1.60;;;;;;;23.06;41.28;100483.78;143735;565;46020;-75
2021/05/12 10:02:03;;;;;;;4.78;1.33;;;;;;;23.26;40.97;100481.25;143738;565;46016;-74
2021/05/12 10:04:39;;;;;;;2.72;1.35;;;;;;;23.40;39.71;100470.22;143734;600;46018;-75
2021/05/12 10:07:26;;;;;;;4.65;1.25;;;;;;;23.54;40.01;100477.06;143731;620;46008;-74
2021/05/12 10:09:58;;;;;;;3.92;1.37;;;;;;;23.77;39.23;100485.78;143736;566;47008;-74
2021/05/12 10:12:31;;;;;;;4.37;1.40;;;;;;;23.79;38.05;100483.78;143735;563;46010;-73
2021/05/12 10:15:00;;;;;;;3.85;1.17;;;;;;;23.75;36.64;100471.66;143740;585;46011;-75
2021/05/12 10:17:30;;;;;;;2.92;1.08;;;;;;;23.63;34.83;100470.03;143735;610;46016;-75
2021/05/12 10:19:57;;;;;;;3.12;1.10;;;;;;;23.80;36.00;100464.06;143736;609;46010;-74
2021/05/12 10:22:24;;;;;;;3.42;1.20;;;;;;;23.75;33.54;100466.28;143737;629;46019;-74
2021/05/12 10:24:53;;;;;;;3.97;1.33;;;;;;;23.75;32.44;100457.41;143738;608;46027;-74
2021/05/12 10:27:30;;;;;;;3.53;1.10;;;;;;;23.65;32.41;100462.72;143736;628;46014;-76
2021/05/12 10:29:59;;;;;;;2.47;1.10;;;;;;;23.76;32.87;100453.75;143736;579;46021;-75
2021/05/12 10:32:36;;;;;;;3.55;1.30;;;;;;;24.07;32.26;100451.91;143730;597;46018;-74
2021/05/12 10:35:14;;;;;;;5.18;1.08;;;;;;;24.10;32.52;100448.94;143737;590;46010;-75
2021/05/12 10:37:47;;;;;;;3.62;1.35;;;;;;;23.92;31.79;100453.25;143735;639;46010;-74
2021/05/12 10:40:28;;;;;;;4.25;1.27;;;;;;;23.87;31.71;100442.09;143735;603;48008;-76
2021/05/12 10:43:11;;;;;;;2.30;1.27;;;;;;;24.08;30.11;100442.88;143735;593;46018;-74
2021/05/12 10:46:04;;;;;;;4.25;1.33;;;;;;;24.21;30.86;100433.72;143735;583;47020;-75
2021/05/12 10:48:41;;;;;;;2.60;1.10;;;;;;;24.26;30.16;100434.16;143730;570;46016;-75
2021/05/12 10:51:31;;;;;;;3.58;1.15;;;;;;;23.95;30.73;100429.72;143734;587;46010;-74
2021/05/12 10:54:06;;;;;;;4.72;1.05;;;;;;;24.25;30.13;100427.94;143737;725;46018;-74
2021/05/12 10:56:44;;;;;;;4.47;1.00;;;;;;;24.23;30.67;100435.28;143736;613;47008;-75
2021/05/12 10:59:19;;;;;;;3.83;1.10;;;;;;;24.12;30.45;100430.03;143729;722;46908;-74
2021/05/12 11:01:55;;;;;;;4.25;1.00;;;;;;;24.01;31.20;100420.28;143737;585;47010;-75
2021/05/12 11:04:25;;;;;;;6.45;1.52;;;;;;;24.15;31.34;100422.56;143736;593;47008;-75
2021/05/12 11:06:57;;;;;;;3.20;1.10;;;;;;;24.04;33.40;100422.66;143737;604;46022;-76
2021/05/12 11:09:43;;;;;;;5.93;1.85;;;;;;;23.98;34.00;100415.19;143732;776;46909;-76
2021/05/12 11:12:15;;;;;;;3.10;1.10;;;;;;;24.24;34.46;100420.88;143736;596;47012;-75
2021/05/12 11:14:56;;;;;;;1.83;1.05;;;;;;;24.64;31.69;100400.31;143738;638;46011;-77
2021/05/12 11:17:41;;;;;;;6.57;1.27;;;;;;;24.34;31.36;100412.84;143735;611;46029;-73
2021/05/12 11:20:21;;;;;;;3.00;1.10;;;;;;;24.12;31.84;100405.91;143732;594;47018;-73
2021/05/12 11:22:50;;;;;;;4.95;1.08;;;;;;;24.11;33.31;100404.19;143734;628;46021;-75
2021/05/12 11:28:34;;;;;;;4.68;1.17;;;;;;;24.39;31.80;100388.31;143736;731;49010;-73
2021/05/12 11:33:58;;;;;;;5.50;1.10;;;;;;;24.25;34.32;100386.84;143734;747;48008;-74
2021/05/12 11:36:28;;;;;;;5.85;1.30;;;;;;;24.45;34.15;100388.59;143734;721;46018;-74
2021/05/12 11:38:55;;;;;;;3.67;1.20;;;;;;;24.29;34.57;100388.25;143736;801;47010;-73